Bilibino, Russia
Current Conditions -  °F | °C
As of 6:00 PM on Sunday 23 Nov 2014 (Local Time) from UHMA Reporting Station
Light Snow Light Snow  
Wind Chill: -5°   Ceiling: 8000
Heat Index: 12°   Visibility: 6mi
Dew Point:   Wind: 18mph
Humidity: 85%   Direction: 360°N
Pressure: 29.91"   Gusts: NA
Location:  68.06°N, 166.44°E
Report Text: UHMA 230600Z 36008MPS 9999 -SN OVC080 M11/M13 Q1013 NOSIG RMKQFE756/1008
Loading
Personal Weather Stations






























Interactive Weather Map New forecast layout! Learn more

10-Day Weather Forecast

Advertisements
Track Severe Weather on mobile